createdAt,value
2022-12-14T00:01:53.108Z,35.10
2022-12-14T00:05:20.673Z,40.30
2022-12-14T00:08:48.333Z,36.80
2022-12-14T00:12:15.233Z,38.80
2022-12-14T00:15:42.415Z,44.60
2022-12-14T00:19:11.184Z,42.00
2022-12-14T00:22:38.195Z,40.90
2022-12-14T00:26:13.142Z,46.40
2022-12-14T00:29:39.848Z,48.90
2022-12-14T00:33:07.014Z,49.70
2022-12-14T00:36:36.570Z,52.70
2022-12-14T00:40:03.677Z,51.90
2022-12-14T00:43:30.857Z,61.90
2022-12-14T00:46:57.827Z,68.20
2022-12-14T00:50:24.578Z,69.80
2022-12-14T00:53:51.309Z,70.20
2022-12-14T00:57:18.190Z,75.80
2022-12-14T01:00:45.307Z,70.30
2022-12-14T01:04:22.712Z,63.30
2022-12-14T01:17:01.175Z,69.90
2022-12-14T01:20:27.803Z,79.20
2022-12-14T01:23:56.813Z,82.50
2022-12-14T01:30:49.634Z,75.10
2022-12-14T01:34:17.329Z,71.20
2022-12-14T01:37:44.043Z,72.60
2022-12-14T01:41:19.073Z,73.50
2022-12-14T01:45:17.599Z,63.70
2022-12-14T01:48:44.667Z,64.30
2022-12-14T01:52:16.214Z,57.80
2022-12-14T01:55:48.835Z,58.80
2022-12-14T01:59:20.009Z,58.50
2022-12-14T02:02:54.241Z,57.90
2022-12-14T02:06:25.951Z,61.40
2022-12-14T02:09:55.779Z,57.80
2022-12-14T02:13:27.138Z,60.30
2022-12-14T02:16:57.329Z,57.40
2022-12-14T02:20:28.615Z,55.20
2022-12-14T02:24:28.431Z,55.00
2022-12-14T02:28:12.869Z,56.70
2022-12-14T02:31:51.563Z,53.10
2022-12-14T02:35:26.097Z,53.10
2022-12-14T02:39:05.244Z,52.10
2022-12-14T02:46:15.415Z,50.40
2022-12-14T02:53:21.649Z,49.30
2022-12-14T02:56:53.827Z,54.40
2022-12-14T03:00:21.546Z,53.60
2022-12-14T03:03:48.573Z,55.70
2022-12-14T03:07:36.679Z,57.50
2022-12-14T03:11:06.059Z,57.70
2022-12-14T03:14:37.836Z,56.40
2022-12-14T03:18:08.878Z,65.00
2022-12-14T03:21:38.061Z,65.50
2022-12-14T03:25:11.414Z,62.00
2022-12-14T03:28:45.683Z,61.70
2022-12-14T03:32:16.480Z,59.20
2022-12-14T22:05:14.749Z,78.80
2022-12-14T22:12:56.195Z,94.60
2022-12-14T22:16:22.962Z,86.10
2022-12-14T22:19:51.087Z,87.70
2022-12-14T22:23:17.982Z,102.50
2022-12-14T22:26:45.834Z,98.10
2022-12-14T22:30:15.990Z,90.30
2022-12-14T22:33:43.216Z,88.30
2022-12-14T22:37:09.943Z,99.00
2022-12-14T22:40:36.765Z,95.90
2022-12-14T22:44:04.032Z,95.10
2022-12-14T22:47:30.723Z,95.60
2022-12-14T22:51:00.688Z,90.30
2022-12-14T22:54:29.945Z,96.80
2022-12-14T22:57:57.372Z,98.80
2022-12-14T23:01:24.905Z,110.40
2022-12-14T23:04:51.841Z,109.80
2022-12-14T23:08:18.702Z,103.90
2022-12-14T23:12:03.036Z,136.60
2022-12-14T23:15:47.409Z,101.50
2022-12-14T23:19:31.768Z,98.00
2022-12-14T23:23:16.158Z,116.50
2022-12-14T23:27:05.695Z,111.30
2022-12-14T23:30:53.158Z,107.50
2022-12-14T23:34:38.215Z,108.90
2022-12-14T23:38:25.775Z,105.00
2022-12-14T23:42:12.541Z,117.70
2022-12-14T23:45:57.122Z,104.90
2022-12-14T23:49:41.541Z,123.20
2022-12-14T23:53:26.964Z,102.50
2022-12-14T23:57:11.319Z,90.60
